createdAt,value
2023-04-20T00:01:27.168Z,5.90
2023-04-20T00:03:55.010Z,5.90
2023-04-20T00:06:22.351Z,5.90
2023-04-20T00:08:49.721Z,5.90
2023-04-20T00:11:17.079Z,5.90
2023-04-20T00:13:44.288Z,5.90
2023-04-20T00:16:12.114Z,5.90
2023-04-20T00:18:40.582Z,5.90
2023-04-20T00:21:08.058Z,5.90
2023-04-20T00:23:35.409Z,6.00
2023-04-20T00:26:02.874Z,6.00
2023-04-20T00:28:30.595Z,6.00
2023-04-20T00:30:58.279Z,6.00
2023-04-20T00:33:25.867Z,6.00
2023-04-20T00:35:53.204Z,6.00
2023-04-20T00:38:20.683Z,6.00
2023-04-20T00:40:53.266Z,6.00
2023-04-20T00:43:21.503Z,6.00
2023-04-20T00:45:48.910Z,6.00
2023-04-20T00:48:16.238Z,6.00
2023-04-20T00:50:43.730Z,6.00
2023-04-20T00:53:11.753Z,5.90
2023-04-20T00:55:39.531Z,6.00
2023-04-20T00:58:07.337Z,6.00
2023-04-20T01:00:35.260Z,6.00
2023-04-20T01:03:02.909Z,5.90
2023-04-20T01:05:32.779Z,5.90
2023-04-20T01:08:00.441Z,6.00
2023-04-20T01:10:27.673Z,5.90
2023-04-20T01:12:55.035Z,5.90
2023-04-20T01:15:22.347Z,5.90
2023-04-20T01:17:50.022Z,5.90
2023-04-20T01:20:17.387Z,5.90
2023-04-20T01:22:49.674Z,5.90
2023-04-20T01:25:18.154Z,5.90
2023-04-20T01:27:45.922Z,5.90
2023-04-20T01:30:13.743Z,5.80
2023-04-20T01:32:41.790Z,5.80
2023-04-20T01:35:10.779Z,5.80
2023-04-20T01:37:38.652Z,5.80
2023-04-20T01:40:08.956Z,5.90
2023-04-20T01:42:36.327Z,5.90
2023-04-20T01:45:06.493Z,5.90
2023-04-20T01:47:35.071Z,5.90
2023-04-20T01:50:02.658Z,5.80
2023-04-20T01:52:29.945Z,5.90
2023-04-20T01:54:57.290Z,5.90
2023-04-20T01:57:25.001Z,5.80
2023-04-20T01:59:52.826Z,5.80
2023-04-20T02:02:20.165Z,5.80
2023-04-20T02:04:47.542Z,5.80
2023-04-20T02:07:14.790Z,5.90
2023-04-20T02:09:42.128Z,5.90
2023-04-20T02:12:09.415Z,5.80
2023-04-20T02:14:36.699Z,5.80
2023-04-20T02:17:04.098Z,5.80
2023-04-20T02:19:31.363Z,5.80
2023-04-20T02:21:58.591Z,5.80
2023-04-20T02:24:26.003Z,5.80
2023-04-20T02:26:53.425Z,5.80
2023-04-20T02:29:21.032Z,5.80
2023-04-20T02:31:48.432Z,5.80
2023-04-20T02:34:16.099Z,5.80
2023-04-20T02:36:43.361Z,5.90
2023-04-20T02:39:10.910Z,5.90
2023-04-20T02:41:38.121Z,5.90
2023-04-20T02:44:05.740Z,5.90
2023-04-20T02:46:33.153Z,5.80
2023-04-20T02:49:01.022Z,5.80
2023-04-20T02:51:28.495Z,5.80
2023-04-20T02:53:56.578Z,5.80
2023-04-20T02:56:23.909Z,5.80
2023-04-20T02:58:52.557Z,5.90
2023-04-20T03:01:19.861Z,5.90
2023-04-20T03:03:47.310Z,5.90
2023-04-20T03:06:14.851Z,5.90
2023-04-20T03:08:42.363Z,5.90
2023-04-20T03:11:09.665Z,5.90
2023-04-20T03:13:36.935Z,5.90
2023-04-20T03:16:05.754Z,5.90
2023-04-20T03:18:33.059Z,5.90
2023-04-20T03:21:00.519Z,5.90
2023-04-20T03:23:27.974Z,5.90
2023-04-20T03:25:55.291Z,5.90
2023-04-20T03:28:22.783Z,5.90
2023-04-20T03:30:53.269Z,5.90
2023-04-20T03:33:20.761Z,6.00
2023-04-20T03:35:48.021Z,6.00
2023-04-20T03:38:15.366Z,6.00
2023-04-20T03:40:42.666Z,6.00
2023-04-20T03:43:11.622Z,6.00
2023-04-20T03:45:39.043Z,6.00
2023-04-20T03:48:06.522Z,5.90
2023-04-20T03:50:33.809Z,5.90
2023-04-20T03:53:01.319Z,5.90
2023-04-20T03:55:28.737Z,5.90
2023-04-20T03:57:56.308Z,5.90
2023-04-20T04:00:23.733Z,5.90
2023-04-20T04:02:51.501Z,5.90
2023-04-20T04:05:19.416Z,5.90
2023-04-20T04:07:46.827Z,6.00
2023-04-20T04:10:14.189Z,6.00
2023-04-20T04:12:41.580Z,6.00
2023-04-20T04:15:09.432Z,6.00
2023-04-20T04:17:36.927Z,6.00
2023-04-20T04:20:04.931Z,6.00
2023-04-20T04:22:32.474Z,6.00
2023-04-20T04:24:59.870Z,6.00
2023-04-20T04:27:30.434Z,6.00
2023-04-20T04:29:57.765Z,6.00
2023-04-20T04:32:25.148Z,6.00
2023-04-20T04:34:54.222Z,6.00
2023-04-20T04:37:22.078Z,6.00
2023-04-20T04:39:50.349Z,6.00
2023-04-20T04:42:17.702Z,6.00
2023-04-20T04:44:45.275Z,6.00
2023-04-20T04:47:12.523Z,6.10
2023-04-20T04:49:41.018Z,6.10
2023-04-20T04:52:10.568Z,6.10
2023-04-20T04:54:38.193Z,6.10
2023-04-20T04:57:05.566Z,6.10
2023-04-20T04:59:33.101Z,6.10
2023-04-20T05:02:00.617Z,6.20
2023-04-20T05:04:27.999Z,6.20
2023-04-20T05:06:55.350Z,6.20
2023-04-20T05:09:22.978Z,6.20
2023-04-20T05:11:50.205Z,6.20
2023-04-20T05:14:17.511Z,6.20
2023-04-20T05:16:44.966Z,6.30
2023-04-20T05:19:12.294Z,6.30
2023-04-20T05:21:39.807Z,6.30
2023-04-20T05:24:08.281Z,6.40
2023-04-20T05:26:35.626Z,6.40
2023-04-20T05:29:03.038Z,6.40
2023-04-20T05:31:31.205Z,6.40
2023-04-20T05:33:58.597Z,6.40
2023-04-20T05:36:26.818Z,6.40
2023-04-20T05:38:54.347Z,6.50
2023-04-20T05:41:27.010Z,6.50
2023-04-20T05:43:55.015Z,6.50
2023-04-20T05:46:22.898Z,6.50
2023-04-20T05:48:50.812Z,6.50
2023-04-20T05:51:18.236Z,6.50
2023-04-20T05:53:45.417Z,6.60
2023-04-20T05:56:12.977Z,6.60
2023-04-20T05:58:40.335Z,6.60
2023-04-20T06:01:07.820Z,6.60
2023-04-20T06:03:35.234Z,6.70
2023-04-20T06:06:02.869Z,6.80
2023-04-20T06:08:30.243Z,6.80
2023-04-20T06:10:58.453Z,6.80
2023-04-20T06:13:26.531Z,6.90
2023-04-20T06:15:54.443Z,6.90
2023-04-20T06:18:21.933Z,7.00
2023-04-20T06:20:49.158Z,7.00
2023-04-20T06:23:16.528Z,7.00
2023-04-20T06:25:44.402Z,7.10
2023-04-20T06:28:11.843Z,7.10
2023-04-20T06:30:39.613Z,7.20
2023-04-20T06:33:07.420Z,7.20
2023-04-20T06:35:36.307Z,7.20
2023-04-20T06:38:03.929Z,7.20
2023-04-20T06:40:31.264Z,7.30
2023-04-20T06:42:58.881Z,7.30
2023-04-20T06:45:26.188Z,7.30
2023-04-20T06:47:53.833Z,7.40
2023-04-20T06:50:22.329Z,7.40
2023-04-20T06:52:49.602Z,7.50
2023-04-20T06:55:18.325Z,7.50
2023-04-20T06:57:45.850Z,7.60
2023-04-20T07:00:13.598Z,7.60
2023-04-20T07:02:49.625Z,7.60
2023-04-20T07:05:18.001Z,7.70
2023-04-20T07:07:46.230Z,7.70
2023-04-20T07:10:14.944Z,7.70
2023-04-20T07:12:43.782Z,7.70
2023-04-20T07:15:11.854Z,7.80
2023-04-20T07:17:39.427Z,7.80
2023-04-20T07:20:08.848Z,7.80
2023-04-20T07:22:37.606Z,7.90
2023-04-20T07:25:07.120Z,7.90
2023-04-20T07:27:39.553Z,8.00
2023-04-20T07:30:09.115Z,8.10
2023-04-20T07:32:37.400Z,8.10
2023-04-20T07:35:05.165Z,8.20
2023-04-20T07:37:33.628Z,8.30
2023-04-20T07:40:01.016Z,8.30
2023-04-20T07:42:29.791Z,8.30
2023-04-20T07:44:59.568Z,8.40
2023-04-20T07:47:26.860Z,8.50
2023-04-20T07:49:54.875Z,8.60
2023-04-20T07:52:22.450Z,8.70
2023-04-20T07:54:49.740Z,8.70
2023-04-20T07:57:17.531Z,8.80
2023-04-20T07:59:46.672Z,8.90
2023-04-20T08:02:14.168Z,9.00
2023-04-20T08:04:41.797Z,9.10
2023-04-20T08:07:09.285Z,9.20
2023-04-20T08:09:36.770Z,9.30
2023-04-20T08:12:05.704Z,9.40
2023-04-20T08:14:34.018Z,9.60
2023-04-20T08:17:01.636Z,9.60
2023-04-20T08:19:29.086Z,9.70
2023-04-20T08:21:56.469Z,9.70
2023-04-20T08:24:23.806Z,9.80
2023-04-20T08:26:51.452Z,9.90
2023-04-20T08:29:18.902Z,9.90
2023-04-20T08:31:46.703Z,9.90
2023-04-20T08:34:15.017Z,9.90
2023-04-20T08:36:42.664Z,10.00
2023-04-20T08:39:14.887Z,10.20
2023-04-20T08:41:42.324Z,10.40
2023-04-20T08:44:10.088Z,10.40
2023-04-20T08:46:41.589Z,10.50
2023-04-20T08:49:13.390Z,10.50
2023-04-20T08:51:41.157Z,10.50
2023-04-20T08:54:08.619Z,10.70
2023-04-20T08:56:37.959Z,10.90
2023-04-20T08:59:06.314Z,11.30
2023-04-20T09:01:36.304Z,11.50
2023-04-20T09:04:15.352Z,11.60
2023-04-20T09:06:50.414Z,11.70
2023-04-20T09:09:22.172Z,11.80
2023-04-20T09:12:08.129Z,11.90
2023-04-20T09:14:46.916Z,12.00
2023-04-20T09:17:18.409Z,12.10
2023-04-20T09:19:46.815Z,12.20
2023-04-20T09:22:14.109Z,12.50
2023-04-20T09:24:42.709Z,12.50
2023-04-20T09:27:17.453Z,12.50
2023-04-20T09:29:45.598Z,12.60
2023-04-20T09:32:26.356Z,12.50
2023-04-20T09:34:53.801Z,12.50
2023-04-20T09:37:23.134Z,12.50
2023-04-20T09:39:53.659Z,12.40
2023-04-20T09:42:21.415Z,12.30
2023-04-20T09:44:49.528Z,12.40
2023-04-20T09:47:18.598Z,12.50
2023-04-20T09:49:49.418Z,12.60
2023-04-20T09:52:19.855Z,12.90
2023-04-20T09:54:47.428Z,12.90
2023-04-20T09:57:15.475Z,13.00
2023-04-20T09:59:47.835Z,13.20
2023-04-20T10:02:15.364Z,13.20
2023-04-20T10:04:57.033Z,13.20
2023-04-20T10:07:31.624Z,13.20
2023-04-20T10:10:08.621Z,13.40
2023-04-20T10:12:51.903Z,13.70
2023-04-20T10:15:19.795Z,14.30
2023-04-20T10:17:47.207Z,14.50
2023-04-20T10:20:28.654Z,14.80
2023-04-20T10:23:10.696Z,15.10
2023-04-20T10:25:38.200Z,15.30
2023-04-20T10:28:11.174Z,15.30
2023-04-20T10:30:50.559Z,15.20
2023-04-20T10:33:18.520Z,15.40
2023-04-20T10:35:49.711Z,15.10
2023-04-20T10:38:33.763Z,15.50
2023-04-20T10:41:11.298Z,15.70
2023-04-20T10:43:44.589Z,15.90
2023-04-20T10:46:22.897Z,16.30
2023-04-20T10:48:54.020Z,16.20
2023-04-20T10:51:21.683Z,16.50
2023-04-20T10:54:09.242Z,16.40
2023-04-20T10:56:43.629Z,16.20
2023-04-20T10:59:13.379Z,16.10
2023-04-20T11:01:41.654Z,16.40
2023-04-20T11:04:10.918Z,17.10
2023-04-20T11:06:44.619Z,17.80
2023-04-20T11:09:23.188Z,18.10
2023-04-20T11:12:12.351Z,18.00
2023-04-20T11:15:01.133Z,18.20
2023-04-20T11:17:37.382Z,18.40
2023-04-20T11:20:09.276Z,18.40
2023-04-20T11:22:36.620Z,18.60
2023-04-20T11:25:12.840Z,19.20
2023-04-20T11:27:43.428Z,19.60
2023-04-20T11:30:11.488Z,19.80
2023-04-20T11:32:39.507Z,19.70
2023-04-20T11:35:09.624Z,19.90
2023-04-20T11:37:54.090Z,20.10
2023-04-20T11:40:21.652Z,20.20
2023-04-20T11:42:49.019Z,20.20
2023-04-20T11:45:16.406Z,20.20
2023-04-20T11:47:43.996Z,20.10
2023-04-20T11:50:11.976Z,20.00
2023-04-20T11:52:39.593Z,19.90
2023-04-20T11:55:07.678Z,19.70
2023-04-20T11:57:34.977Z,20.00
2023-04-20T12:00:02.347Z,20.80
2023-04-20T12:02:29.928Z,21.30
2023-04-20T12:04:57.835Z,21.60
2023-04-20T12:07:25.442Z,21.90
2023-04-20T12:09:53.869Z,21.60
2023-04-20T12:12:22.388Z,21.40
2023-04-20T12:14:49.810Z,20.90
2023-04-20T12:17:17.098Z,20.30
2023-04-20T12:19:44.349Z,19.70
2023-04-20T12:22:11.766Z,19.30
2023-04-20T12:24:39.055Z,19.20
2023-04-20T12:27:06.421Z,19.00
2023-04-20T12:29:34.240Z,18.90
2023-04-20T12:32:01.513Z,19.10
2023-04-20T12:34:28.874Z,19.40
2023-04-20T12:36:57.901Z,20.10
2023-04-20T12:39:25.226Z,20.70
2023-04-20T12:41:55.705Z,20.80
2023-04-20T12:44:25.885Z,20.60
2023-04-20T12:46:56.645Z,20.70
2023-04-20T12:49:24.020Z,20.80
2023-04-20T12:51:51.846Z,20.80
2023-04-20T12:54:19.283Z,20.60
2023-04-20T12:56:47.389Z,20.20
2023-04-20T12:59:15.802Z,19.80
2023-04-20T13:01:43.074Z,19.50
2023-04-20T13:04:11.435Z,19.30
2023-04-20T13:06:42.161Z,19.30
2023-04-20T13:09:09.542Z,19.00
2023-04-20T13:11:36.884Z,18.80
2023-04-20T13:14:05.292Z,18.70
2023-04-20T13:16:33.261Z,18.40
2023-04-20T13:19:00.722Z,18.10
2023-04-20T13:21:28.064Z,17.90
2023-04-20T13:23:56.814Z,17.90
2023-04-20T13:26:24.593Z,17.80
2023-04-20T13:28:52.622Z,17.60
2023-04-20T13:31:19.871Z,17.40
2023-04-20T13:33:47.265Z,17.20
2023-04-20T13:36:15.103Z,17.10
2023-04-20T13:38:42.357Z,17.10
2023-04-20T13:41:09.795Z,17.10
2023-04-20T13:43:37.121Z,17.00
2023-04-20T13:46:04.425Z,16.90
2023-04-20T13:48:31.809Z,16.90
2023-04-20T13:50:59.304Z,16.90
2023-04-20T13:53:26.641Z,16.90
2023-04-20T13:55:53.965Z,16.90
2023-04-20T13:58:21.297Z,16.90
2023-04-20T14:00:48.582Z,16.80
2023-04-20T14:03:18.985Z,16.80
2023-04-20T14:05:46.729Z,16.90
2023-04-20T14:08:14.007Z,17.00
2023-04-20T14:10:41.509Z,17.20
2023-04-20T14:13:09.134Z,17.80
2023-04-20T14:15:36.495Z,18.50
2023-04-20T14:18:03.983Z,19.10
2023-04-20T14:20:34.521Z,19.50
2023-04-20T14:23:02.092Z,19.70
2023-04-20T14:25:29.704Z,19.70
2023-04-20T14:27:57.632Z,19.20
2023-04-20T14:30:25.478Z,18.80
2023-04-20T14:33:04.582Z,18.30
2023-04-20T14:35:31.913Z,17.90
2023-04-20T14:37:59.268Z,17.60
2023-04-20T14:40:26.694Z,17.60
2023-04-20T14:42:53.998Z,17.90
2023-04-20T14:45:21.396Z,18.10
2023-04-20T14:47:54.429Z,18.40
2023-04-20T14:50:21.987Z,18.40
2023-04-20T14:52:49.601Z,18.30
2023-04-20T14:55:17.427Z,18.20
2023-04-20T14:57:44.652Z,18.50
2023-04-20T15:00:12.418Z,18.90
2023-04-20T15:02:40.071Z,19.00
2023-04-20T15:05:10.553Z,19.10
2023-04-20T15:07:38.464Z,19.00
2023-04-20T15:10:06.043Z,18.60
2023-04-20T15:12:33.580Z,18.20
2023-04-20T15:15:00.923Z,17.80
2023-04-20T15:17:28.201Z,17.60
2023-04-20T15:19:55.460Z,17.40
2023-04-20T15:22:22.957Z,17.30
2023-04-20T15:24:50.393Z,17.20
2023-04-20T15:27:18.007Z,17.10
2023-04-20T15:29:45.651Z,16.90
2023-04-20T15:32:13.072Z,16.80
2023-04-20T15:34:40.732Z,16.60
2023-04-20T15:37:08.166Z,16.50
2023-04-20T15:39:35.557Z,16.40
2023-04-20T15:42:03.281Z,16.30
2023-04-20T15:44:30.743Z,16.30
2023-04-20T15:46:58.677Z,16.60
2023-04-20T15:49:26.151Z,16.90
2023-04-20T15:51:53.513Z,17.10
2023-04-20T15:54:28.255Z,17.30
2023-04-20T15:56:55.967Z,17.40
2023-04-20T15:59:23.282Z,17.40
2023-04-20T16:01:50.817Z,17.40
2023-04-20T16:04:18.586Z,17.50
2023-04-20T16:06:49.643Z,17.40
2023-04-20T16:09:17.988Z,17.50
2023-04-20T16:11:45.535Z,17.50
2023-04-20T16:14:13.037Z,17.40
2023-04-20T16:16:40.600Z,17.30
2023-04-20T16:19:08.109Z,17.30
2023-04-20T16:21:35.605Z,17.20
2023-04-20T16:24:05.716Z,17.20
2023-04-20T16:26:36.769Z,17.20
2023-04-20T16:29:04.286Z,17.10
2023-04-20T16:31:31.856Z,17.00
2023-04-20T16:33:59.449Z,17.00
2023-04-20T16:36:27.606Z,17.00
2023-04-20T16:38:55.136Z,16.90
2023-04-20T16:41:23.390Z,16.90
2023-04-20T16:43:51.125Z,16.80
2023-04-20T16:46:22.519Z,16.80
2023-04-20T16:48:51.371Z,16.70
2023-04-20T16:51:18.613Z,16.70
2023-04-20T16:53:46.041Z,16.60
2023-04-20T16:56:13.399Z,16.50
2023-04-20T16:58:41.053Z,16.40
2023-04-20T17:01:09.005Z,16.20
2023-04-20T17:03:36.635Z,16.10
2023-04-20T17:06:09.934Z,16.00
2023-04-20T17:08:40.235Z,15.90
2023-04-20T17:11:07.617Z,15.80
2023-04-20T17:13:34.993Z,15.70
2023-04-20T17:16:02.611Z,15.60
2023-04-20T17:18:33.402Z,15.50
2023-04-20T17:21:02.376Z,15.50
2023-04-20T17:23:30.354Z,15.40
2023-04-20T17:25:58.261Z,15.30
2023-04-20T17:28:26.109Z,15.20
2023-04-20T17:30:53.899Z,15.10
2023-04-20T17:33:21.711Z,15.00
2023-04-20T17:35:48.994Z,14.90
2023-04-20T17:38:16.324Z,14.80
2023-04-20T17:40:43.759Z,14.70
2023-04-20T17:43:11.561Z,14.60
2023-04-20T17:45:39.194Z,14.40
2023-04-20T17:48:07.013Z,14.30
2023-04-20T17:50:37.870Z,14.30
2023-04-20T17:53:07.185Z,14.20
2023-04-20T17:55:35.361Z,14.00
2023-04-20T17:58:02.930Z,13.90
2023-04-20T18:00:30.340Z,13.90
2023-04-20T18:02:59.327Z,13.80
2023-04-20T18:05:27.292Z,13.70
2023-04-20T18:07:54.636Z,13.60
2023-04-20T18:10:22.165Z,13.50
2023-04-20T18:12:49.444Z,13.40
2023-04-20T18:15:16.820Z,13.30
2023-04-20T18:17:44.674Z,13.20
2023-04-20T18:20:12.518Z,13.10
2023-04-20T18:22:40.502Z,13.00
2023-04-20T18:25:08.070Z,12.90
2023-04-20T18:27:38.606Z,12.90
2023-04-20T18:30:07.322Z,12.80
2023-04-20T18:32:36.711Z,12.70
2023-04-20T18:35:05.087Z,12.60
2023-04-20T18:37:32.509Z,12.50
2023-04-20T18:39:59.923Z,12.50
2023-04-20T18:42:27.219Z,12.40
2023-04-20T18:44:54.608Z,12.30
2023-04-20T18:47:24.962Z,12.30
2023-04-20T18:49:53.756Z,12.20
2023-04-20T18:52:22.209Z,12.10
2023-04-20T18:54:49.859Z,12.00
2023-04-20T18:57:17.321Z,12.00
2023-04-20T18:59:44.871Z,11.90
2023-04-20T19:02:13.834Z,11.80
2023-04-20T19:04:41.678Z,11.80
2023-04-20T19:07:08.934Z,11.70
2023-04-20T19:09:36.243Z,11.60
2023-04-20T19:12:03.785Z,11.60
2023-04-20T19:14:31.218Z,11.60
2023-04-20T19:16:58.899Z,11.50
2023-04-20T19:19:26.701Z,11.50
2023-04-20T19:21:54.455Z,11.40
2023-04-20T19:24:21.833Z,11.40
2023-04-20T19:26:49.133Z,11.40
2023-04-20T19:29:16.421Z,11.40
2023-04-20T19:31:43.759Z,11.30
2023-04-20T19:34:13.689Z,11.30
2023-04-20T19:36:42.135Z,11.20
2023-04-20T19:39:10.157Z,11.20
2023-04-20T19:41:38.198Z,11.10
2023-04-20T19:44:06.657Z,11.10
2023-04-20T19:46:34.352Z,11.10
2023-04-20T19:49:01.834Z,11.10
2023-04-20T19:51:29.985Z,11.10
2023-04-20T19:54:00.493Z,11.00
2023-04-20T19:56:27.975Z,11.00
2023-04-20T19:58:55.293Z,10.90
2023-04-20T20:01:22.539Z,10.90
2023-04-20T20:03:50.062Z,11.00
2023-04-20T20:06:17.552Z,10.90
2023-04-20T20:08:44.813Z,10.90
2023-04-20T20:11:12.165Z,10.90
2023-04-20T20:13:40.397Z,10.90
2023-04-20T20:16:07.665Z,10.80
2023-04-20T20:18:34.945Z,10.80
2023-04-20T20:21:02.351Z,10.80
2023-04-20T20:23:29.927Z,10.70
2023-04-20T20:25:57.264Z,10.70
2023-04-20T20:28:24.608Z,10.60
2023-04-20T20:30:53.785Z,10.50
2023-04-20T20:33:21.212Z,10.50
2023-04-20T20:35:48.610Z,10.40
2023-04-20T20:38:16.191Z,10.40
2023-04-20T20:40:44.038Z,10.40
2023-04-20T20:43:13.208Z,10.40
2023-04-20T20:45:40.481Z,10.40
2023-04-20T20:48:07.833Z,10.30
2023-04-20T20:50:35.271Z,10.30
2023-04-20T20:53:02.665Z,10.30
2023-04-20T20:55:30.604Z,10.20
2023-04-20T20:57:58.004Z,10.20
2023-04-20T21:00:25.378Z,10.10
2023-04-20T21:02:52.816Z,10.10
2023-04-20T21:05:23.080Z,10.10
2023-04-20T21:07:51.173Z,10.10
2023-04-20T21:10:19.049Z,10.00
2023-04-20T21:12:46.538Z,10.00
2023-04-20T21:15:13.819Z,10.00
2023-04-20T21:17:41.295Z,9.90
2023-04-20T21:20:09.690Z,9.90
2023-04-20T21:22:37.096Z,9.90
2023-04-20T21:25:04.918Z,9.80
2023-04-20T21:27:32.267Z,9.80
2023-04-20T21:30:01.120Z,9.80
2023-04-20T21:32:28.458Z,9.70
2023-04-20T21:34:55.724Z,9.70
2023-04-20T21:37:23.013Z,9.60
2023-04-20T21:39:54.031Z,9.60
2023-04-20T21:42:21.294Z,9.50
2023-04-20T21:44:48.601Z,9.40
2023-04-20T21:47:15.859Z,9.30
2023-04-20T21:49:44.512Z,9.20
2023-04-20T21:52:11.825Z,9.20
2023-04-20T21:54:41.236Z,9.10
2023-04-20T21:57:08.545Z,9.10
2023-04-20T21:59:35.866Z,9.00
2023-04-20T22:02:03.985Z,8.90
2023-04-20T22:04:32.467Z,8.80
2023-04-20T22:07:00.752Z,8.80
2023-04-20T22:09:28.043Z,8.70
2023-04-20T22:11:56.154Z,8.70
2023-04-20T22:14:23.553Z,8.60
2023-04-20T22:16:52.621Z,8.60
2023-04-20T22:19:20.057Z,8.50
2023-04-20T22:21:47.518Z,8.50
2023-04-20T22:24:14.781Z,8.40
2023-04-20T22:26:42.610Z,8.40
2023-04-20T22:29:09.895Z,8.30
2023-04-20T22:31:37.435Z,8.30
2023-04-20T22:34:04.741Z,8.20
2023-04-20T22:36:32.830Z,8.20
2023-04-20T22:39:00.318Z,8.10
2023-04-20T22:41:27.785Z,8.10
2023-04-20T22:43:55.097Z,8.10
2023-04-20T22:46:22.765Z,8.00
2023-04-20T22:48:50.079Z,7.90
2023-04-20T22:51:17.513Z,7.80
2023-04-20T22:53:45.266Z,7.80
2023-04-20T22:56:12.541Z,7.70
2023-04-20T22:58:39.860Z,7.70
2023-04-20T23:01:09.204Z,7.70
2023-04-20T23:03:37.509Z,7.70
2023-04-20T23:06:05.341Z,7.60
2023-04-20T23:08:33.774Z,7.60
2023-04-20T23:11:01.192Z,7.60
2023-04-20T23:13:28.636Z,7.50
2023-04-20T23:15:55.999Z,7.50
2023-04-20T23:18:23.334Z,7.40
2023-04-20T23:20:50.824Z,7.40
2023-04-20T23:23:18.627Z,7.30
2023-04-20T23:25:46.015Z,7.30
2023-04-20T23:28:13.248Z,7.30
2023-04-20T23:30:40.664Z,7.30
2023-04-20T23:33:08.061Z,7.20
2023-04-20T23:35:36.644Z,7.20
2023-04-20T23:38:04.826Z,7.10
2023-04-20T23:40:32.190Z,7.10
2023-04-20T23:42:59.669Z,7.10
2023-04-20T23:45:27.133Z,7.10
2023-04-20T23:47:54.423Z,7.00
2023-04-20T23:50:22.176Z,7.00
2023-04-20T23:52:49.470Z,6.90
2023-04-20T23:55:16.820Z,6.90
2023-04-20T23:57:44.096Z,6.80
